Lake Charles, LA

2:41 AM CDT on August 28, 2016 (GMT -0500)
LCB Academy | | Change Station
Active Advisory: Flood Warning

Elev 33 ft 30.22 °N, 93.20 °W | Updated 1 minute ago

Clear
Clear
74.4 °F
Feels Like 72 °F
N
3.0
Wind Variable Wind from NE
Gusts 6.0 mph

Today
High -- | Low -- °F
--% Chance of Precip.
Yesterday
High -- | Low -- °F
Precip. -- in
Pressure 29.96 in
Visibility 10.0 miles
Clouds Clear
Heat Index 72 °F
Dew Point 73 °F
Humidity 95%
Rainfall 0.00 in
Snow Depth Not available.
6:47 AM 7:39 PM
Waning Crescent, 17% visible
METAR KCWF 280735Z 04004KT 10SM CLR 22/22 A2996 RMK AO2 LTG DSNT S AND SW T02270225 PWINO
Pressure 29.96 in
Visibility 10.0 miles
Clouds Clear
Heat Index 72 °F
Dew Point 73 °F
Humidity 95%
Rainfall 0.00 in
Snow Depth Not available.
6:47 AM 7:39 PM
Waning Crescent, 17% visible
METAR KCWF 280735Z 04004KT 10SM CLR 22/22 A2996 RMK AO2 LTG DSNT S AND SW T02270225 PWINO

10-Day Weather Forecast

Almanac

Astronomy

Aug. 28, 2016 Rise Set
Actual Time
Civil Twilight
Nautical Twilight
Astronomical Twilight
Moon
Length of Visible Light
Length of Day
Tomorrow will be .
, % of the Moon is Illuminated

Today's Extremes

State Highs State Lows

Community

WunderPhotos

Upload Photos

1,935,533 photos uploaded!

WunderBlog® & News

Nearby

Air Quality

  Air Quality AQ Index Pollutant
Not available.

Snow Depth

Station Depth Elevation

Earthquake Activity

City Distance Mag. Time & Date
Minimum magnitude displayed is 2.5.

Coastal Water Temperatures

Place Temperature

Stations

Nearby Weather Stations

Station Location Temp. Windchill Dew Point Humidity Wind Precip. Elev Updated Type
                   

Watches & Warnings

Flood Warning
Issued: 7:58 PM CDT Aug. 27, 2016 – National Weather Service

The Flood Warning continues for
the Calcasieu River at Old Town Bay.
* Until Monday afternoon... or until the warning is cancelled.
* Flood stage is 4.0 feet.
* Impact... at stages near 4.0 feet... minor flooding of goos Ferry
Road will occur.
* Impact... at stages near 3.5 feet... ponding of water on low spots
along goos Ferry Road will occur.


Lat... Lon 3030 9329 3019 9321 3025 9308 3031 9303 3038 9314